createdAt,value
2024-05-09T00:02:47.430Z,4.87
2024-05-09T00:05:55.138Z,5.40
2024-05-09T00:09:00.308Z,5.97
2024-05-09T00:12:05.256Z,5.70
2024-05-09T00:15:11.180Z,5.70
2024-05-09T00:18:16.368Z,5.80
2024-05-09T00:21:23.990Z,5.80
2024-05-09T00:24:28.866Z,5.87
2024-05-09T00:27:33.759Z,5.63
2024-05-09T00:30:38.639Z,5.43
2024-05-09T00:33:43.572Z,5.43
2024-05-09T00:36:51.341Z,5.70
2024-05-09T00:39:56.368Z,4.67
2024-05-09T00:43:01.206Z,5.73
2024-05-09T00:46:06.283Z,5.80
2024-05-09T00:49:12.045Z,5.67
2024-05-09T00:52:19.942Z,5.87
2024-05-09T00:55:25.059Z,6.07
2024-05-09T00:58:31.820Z,5.53
2024-05-09T01:01:37.597Z,6.17
2024-05-09T01:04:42.775Z,6.10
2024-05-09T01:07:50.584Z,6.90
2024-05-09T01:10:55.525Z,6.20
2024-05-09T01:14:00.484Z,5.90
2024-05-09T01:17:05.531Z,5.63
2024-05-09T01:20:19.622Z,6.50
2024-05-09T01:23:30.482Z,5.30
2024-05-09T01:26:35.550Z,5.83
2024-05-09T01:29:40.743Z,5.80
2024-05-09T01:32:45.967Z,6.40
2024-05-09T01:35:51.132Z,6.50
2024-05-09T01:38:59.544Z,6.13
2024-05-09T01:42:04.648Z,5.60
2024-05-09T01:45:10.535Z,5.80
2024-05-09T01:48:16.139Z,5.50
2024-05-09T01:51:21.160Z,6.37
2024-05-09T01:54:28.749Z,6.00
2024-05-09T01:57:33.753Z,6.17
2024-05-09T02:00:42.290Z,5.47
2024-05-09T02:03:52.057Z,6.50
2024-05-09T02:06:57.111Z,5.70
2024-05-09T02:10:10.946Z,5.80
2024-05-09T02:13:22.673Z,5.30
2024-05-09T02:16:27.505Z,6.07
2024-05-09T02:19:32.473Z,6.40
2024-05-09T02:22:37.587Z,6.40
2024-05-09T02:25:45.313Z,6.23
2024-05-09T02:28:50.241Z,6.03
2024-05-09T02:31:55.146Z,6.10
2024-05-09T02:35:00.170Z,6.40
2024-05-09T02:38:05.407Z,6.67
2024-05-09T02:41:10.795Z,6.00
2024-05-09T02:44:16.077Z,6.73
2024-05-09T02:47:18.394Z,6.47
2024-05-09T02:50:30.220Z,7.10
2024-05-09T02:53:39.398Z,6.90
2024-05-09T02:56:46.973Z,6.40
2024-05-09T02:59:51.979Z,6.60
2024-05-09T03:02:54.297Z,6.67
2024-05-09T03:05:59.262Z,6.90
2024-05-09T03:09:04.866Z,6.70
2024-05-09T03:12:10.042Z,6.67
2024-05-09T03:15:14.977Z,6.67
2024-05-09T03:18:17.545Z,7.00
2024-05-09T03:21:22.435Z,7.67
2024-05-09T03:24:24.736Z,6.30
2024-05-09T03:27:32.223Z,7.60
2024-05-09T03:30:40.913Z,6.67
2024-05-09T03:33:48.162Z,6.83
2024-05-09T03:36:53.189Z,7.37
2024-05-09T03:39:58.289Z,6.93
2024-05-09T03:43:05.795Z,6.97
2024-05-09T03:46:10.679Z,6.57
2024-05-09T03:49:13.167Z,6.53
2024-05-09T03:52:19.132Z,7.70
2024-05-09T03:55:21.410Z,7.00
2024-05-09T03:58:28.915Z,7.00
2024-05-09T04:01:34.154Z,7.03
2024-05-09T04:04:36.471Z,7.33
2024-05-09T04:07:41.417Z,7.00
2024-05-09T04:10:43.794Z,6.97
2024-05-09T04:13:51.530Z,7.20
2024-05-09T04:16:56.448Z,6.87
2024-05-09T04:19:58.701Z,7.47
2024-05-09T04:23:03.868Z,7.17
2024-05-09T04:26:10.002Z,7.30
2024-05-09T04:29:15.101Z,6.97
2024-05-09T04:32:20.042Z,7.17
2024-05-09T04:35:22.571Z,7.53
2024-05-09T04:38:27.483Z,7.20
2024-05-09T04:41:30.324Z,7.43
2024-05-09T04:44:38.064Z,7.20
2024-05-09T04:47:40.880Z,6.80
2024-05-09T04:50:45.967Z,6.93
2024-05-09T04:53:48.538Z,7.63
2024-05-09T04:56:53.381Z,7.10
2024-05-09T05:00:03.079Z,6.73
2024-05-09T05:03:14.539Z,7.87
2024-05-09T05:06:21.210Z,7.17
2024-05-09T05:09:23.921Z,6.50
2024-05-09T05:12:44.683Z,7.47
2024-05-09T05:15:53.422Z,7.03
2024-05-09T05:18:56.052Z,7.63
2024-05-09T05:22:01.044Z,7.10
2024-05-09T05:25:03.289Z,6.93
2024-05-09T05:28:09.356Z,6.93
2024-05-09T05:31:18.220Z,6.90
2024-05-09T05:34:20.486Z,7.10
2024-05-09T05:37:25.683Z,7.70
2024-05-09T05:40:36.296Z,6.57
2024-05-09T05:43:40.407Z,7.13
2024-05-09T05:46:47.998Z,7.60
2024-05-09T05:49:50.292Z,6.13
2024-05-09T05:52:55.174Z,6.63
2024-05-09T05:55:57.383Z,6.20
2024-05-09T05:59:02.393Z,7.30
2024-05-09T06:02:09.548Z,6.83
2024-05-09T06:05:14.560Z,6.23
2024-05-09T06:08:16.970Z,6.50
2024-05-09T06:11:22.078Z,7.77
2024-05-09T06:14:24.557Z,6.07
2024-05-09T06:17:32.170Z,6.13
2024-05-09T06:20:37.293Z,7.10
2024-05-09T06:23:48.477Z,6.73
2024-05-09T06:26:53.747Z,6.07
2024-05-09T06:29:55.918Z,6.60
2024-05-09T06:33:03.709Z,6.13
2024-05-09T06:36:09.472Z,6.20
2024-05-09T06:39:14.505Z,6.50
2024-05-09T06:42:19.385Z,5.90
2024-05-09T06:45:22.034Z,6.60
2024-05-09T06:48:30.128Z,6.67
2024-05-09T06:51:35.904Z,7.13
2024-05-09T06:54:40.760Z,6.53
2024-05-09T06:57:45.956Z,6.63
2024-05-09T07:00:50.820Z,5.83
2024-05-09T07:03:56.070Z,6.67
2024-05-09T07:07:01.213Z,6.17
2024-05-09T07:10:04.079Z,6.10
2024-05-09T07:13:12.460Z,6.17
2024-05-09T07:16:15.030Z,5.67
2024-05-09T07:19:23.345Z,5.37
2024-05-09T07:22:25.710Z,5.60
2024-05-09T07:25:30.748Z,5.23
2024-05-09T07:28:33.700Z,5.70
2024-05-09T07:31:38.568Z,4.87
2024-05-09T07:34:43.506Z,5.00
2024-05-09T07:37:50.042Z,5.00
2024-05-09T07:40:52.573Z,4.90
2024-05-09T07:43:57.748Z,4.53
2024-05-09T07:53:38.004Z,4.77
2024-05-09T07:56:42.167Z,4.73
2024-05-09T07:59:47.103Z,4.60
2024-05-09T08:02:52.184Z,4.70
2024-05-09T08:06:02.015Z,4.77
2024-05-09T08:09:10.975Z,4.37
2024-05-09T08:12:18.834Z,4.30
2024-05-09T08:15:23.634Z,4.17
2024-05-09T08:18:26.233Z,4.87
2024-05-09T08:21:34.058Z,4.50
2024-05-09T08:24:36.338Z,4.80
2024-05-09T08:27:42.486Z,4.73
2024-05-09T08:30:44.955Z,6.17
2024-05-09T08:33:51.718Z,4.93
2024-05-09T08:36:59.655Z,4.07
2024-05-09T08:40:11.174Z,4.73
2024-05-09T08:43:20.397Z,4.20
2024-05-09T08:46:25.737Z,5.03
2024-05-09T08:49:30.751Z,4.20
2024-05-09T08:52:35.681Z,3.90
2024-05-09T08:55:43.225Z,3.87
2024-05-09T08:58:52.054Z,4.00
2024-05-09T09:01:55.538Z,4.07
2024-05-09T09:05:06.147Z,3.70
2024-05-09T09:08:11.249Z,3.87
2024-05-09T09:11:16.289Z,4.47
2024-05-09T09:14:18.533Z,6.57
2024-05-09T09:17:23.416Z,4.07
2024-05-09T09:20:33.756Z,3.90
2024-05-09T09:23:44.750Z,3.97
2024-05-09T09:26:49.645Z,3.87
2024-05-09T09:29:54.745Z,5.67
2024-05-09T09:32:57.067Z,3.70
2024-05-09T09:36:01.961Z,4.83
2024-05-09T09:39:09.140Z,4.27
2024-05-09T09:42:17.657Z,4.37
2024-05-09T09:45:20.955Z,4.17
2024-05-09T09:48:26.116Z,3.40
2024-05-09T09:51:31.353Z,3.87
2024-05-09T09:54:39.188Z,3.93
2024-05-09T09:57:46.800Z,3.40
2024-05-09T10:00:50.760Z,4.20
2024-05-09T10:03:56.462Z,3.60
2024-05-09T10:07:05.789Z,2.80
2024-05-09T10:10:16.129Z,4.17
2024-05-09T10:13:21.465Z,4.20
2024-05-09T10:16:26.598Z,3.90
2024-05-09T10:19:31.694Z,4.53
2024-05-09T10:22:34.326Z,4.50
2024-05-09T10:25:42.278Z,3.80
2024-05-09T10:28:44.948Z,3.93
2024-05-09T10:31:50.886Z,3.93
2024-05-09T10:35:07.958Z,4.53
2024-05-09T10:38:15.038Z,3.83
2024-05-09T10:41:23.884Z,3.87
2024-05-09T10:44:30.675Z,3.57
2024-05-09T10:47:33.109Z,7.30
2024-05-09T10:50:43.686Z,5.90
2024-05-09T10:53:49.767Z,3.50
2024-05-09T10:57:01.867Z,5.20
2024-05-09T11:00:12.756Z,3.37
2024-05-09T11:03:18.965Z,3.63
2024-05-09T11:06:24.018Z,3.80
2024-05-09T11:09:26.365Z,4.13
2024-05-09T11:12:34.250Z,4.13
2024-05-09T11:15:40.186Z,3.43
2024-05-09T11:18:45.322Z,3.53
2024-05-09T11:21:54.308Z,3.50
2024-05-09T11:24:56.857Z,3.43
2024-05-09T11:28:05.318Z,3.27
2024-05-09T11:31:10.516Z,3.53
2024-05-09T11:34:16.199Z,3.87
2024-05-09T11:37:21.411Z,4.00
2024-05-09T11:40:28.073Z,3.30
2024-05-09T11:43:39.943Z,3.20
2024-05-09T11:46:43.487Z,3.37
2024-05-09T11:49:49.428Z,3.50
2024-05-09T11:52:51.956Z,3.13
2024-05-09T11:55:58.145Z,3.70
2024-05-09T11:59:03.728Z,3.97
2024-05-09T12:02:08.822Z,3.57
2024-05-09T12:05:11.357Z,3.57
2024-05-09T12:08:16.567Z,3.30
2024-05-09T12:11:18.948Z,6.83
2024-05-09T12:14:26.430Z,3.37
2024-05-09T12:17:28.991Z,3.87
2024-05-09T12:20:38.405Z,4.70
2024-05-09T12:23:42.222Z,3.63
2024-05-09T12:26:47.197Z,3.33
2024-05-09T12:29:52.069Z,4.23
2024-05-09T12:32:56.910Z,3.60
2024-05-09T12:35:59.468Z,3.03
2024-05-09T12:39:06.421Z,3.23
2024-05-09T12:42:09.769Z,2.90
2024-05-09T12:45:18.959Z,3.20
2024-05-09T12:48:23.970Z,3.77
2024-05-09T12:51:26.662Z,3.27
2024-05-09T12:54:33.646Z,3.43
2024-05-09T12:57:39.730Z,3.03
2024-05-09T13:00:50.231Z,3.73
2024-05-09T13:03:55.359Z,4.13
2024-05-09T13:06:57.981Z,4.47
2024-05-09T13:10:03.119Z,3.20
2024-05-09T13:13:06.317Z,2.90
2024-05-09T13:16:14.303Z,3.33
2024-05-09T13:19:17.047Z,3.33
2024-05-09T13:22:22.291Z,3.30
2024-05-09T13:25:24.552Z,3.43
2024-05-09T13:28:31.917Z,3.20
2024-05-09T13:31:36.795Z,3.47
2024-05-09T13:34:41.700Z,3.47
2024-05-09T13:37:44.031Z,3.23
2024-05-09T13:40:49.836Z,3.00
2024-05-09T13:43:53.662Z,3.00
2024-05-09T13:47:01.314Z,3.30
2024-05-09T13:50:06.881Z,3.77
2024-05-09T13:53:13.960Z,4.00
2024-05-09T13:56:18.911Z,3.77
2024-05-09T13:59:21.085Z,3.53
2024-05-09T14:02:31.980Z,5.37
2024-05-09T14:05:34.441Z,3.40
2024-05-09T14:08:39.453Z,3.33
2024-05-09T14:11:44.725Z,3.70
2024-05-09T14:14:47.107Z,3.73
2024-05-09T14:17:54.798Z,3.97
2024-05-09T14:20:59.930Z,3.37
2024-05-09T14:24:02.450Z,3.90
2024-05-09T14:27:07.887Z,3.23
2024-05-09T14:30:22.075Z,3.20
2024-05-09T14:33:31.531Z,3.00
2024-05-09T14:36:36.881Z,3.53
2024-05-09T14:39:39.224Z,3.40
2024-05-09T14:42:44.156Z,8.93
2024-05-09T14:45:47.025Z,3.53
2024-05-09T14:48:55.319Z,3.60
2024-05-09T14:51:57.788Z,3.60
2024-05-09T14:55:02.784Z,4.07
2024-05-09T14:58:06.722Z,3.77
2024-05-09T15:01:11.872Z,3.90
2024-05-09T15:04:19.823Z,3.77
2024-05-09T15:07:22.379Z,5.67
2024-05-09T15:10:34.452Z,3.60
2024-05-09T15:13:41.147Z,3.80
2024-05-09T15:16:43.599Z,3.50
2024-05-09T15:19:51.378Z,3.50
2024-05-09T15:22:53.658Z,4.10
2024-05-09T15:25:58.554Z,3.80
2024-05-09T15:29:00.737Z,4.10
2024-05-09T15:32:05.672Z,5.03
2024-05-09T15:35:13.426Z,3.33
2024-05-09T15:38:19.119Z,3.80
2024-05-09T15:41:21.310Z,3.60
2024-05-09T15:44:28.000Z,3.87
2024-05-09T15:47:30.389Z,3.50
2024-05-09T15:50:40.996Z,3.20
2024-05-09T15:53:47.328Z,3.80
2024-05-09T15:56:51.038Z,4.97
2024-05-09T15:59:55.871Z,4.13
2024-05-09T16:02:58.165Z,3.90
2024-05-09T16:06:05.920Z,3.50
2024-05-09T16:09:08.974Z,3.27
2024-05-09T16:12:13.815Z,3.50
2024-05-09T16:15:16.054Z,3.70
2024-05-09T16:18:21.527Z,3.00
2024-05-09T16:21:26.597Z,3.73
2024-05-09T16:24:31.547Z,4.03
2024-05-09T16:27:33.954Z,4.60
2024-05-09T16:30:39.854Z,3.47
2024-05-09T16:33:42.543Z,4.17
2024-05-09T16:36:51.479Z,4.03
2024-05-09T16:39:56.565Z,5.67
2024-05-09T16:43:01.073Z,3.40
2024-05-09T16:46:06.224Z,3.43
2024-05-09T16:49:09.145Z,4.00
2024-05-09T16:52:18.252Z,4.10
2024-05-09T16:55:21.331Z,3.97
2024-05-09T16:58:26.913Z,3.50
2024-05-09T17:01:30.875Z,4.47
2024-05-09T17:04:35.970Z,3.53
2024-05-09T17:07:41.142Z,3.33
2024-05-09T17:10:46.259Z,3.33
2024-05-09T17:13:51.382Z,4.17
2024-05-09T17:16:56.215Z,3.50
2024-05-09T17:20:06.100Z,3.57
2024-05-09T17:23:13.313Z,3.77
2024-05-09T17:26:19.002Z,3.30
2024-05-09T17:29:24.088Z,3.17
2024-05-09T17:32:30.040Z,3.20
2024-05-09T17:35:32.889Z,3.13
2024-05-09T17:38:40.684Z,3.20
2024-05-09T17:41:43.726Z,3.50
2024-05-09T17:44:48.621Z,3.00
2024-05-09T17:47:51.112Z,3.50
2024-05-09T17:50:56.126Z,4.30
2024-05-09T17:54:00.919Z,3.30
2024-05-09T17:57:05.742Z,3.50
2024-05-09T18:00:11.467Z,3.13
2024-05-09T18:03:17.573Z,3.30
2024-05-09T18:06:22.908Z,3.77
2024-05-09T18:09:30.435Z,5.43
2024-05-09T18:12:33.091Z,3.67
2024-05-09T18:15:38.565Z,3.70
2024-05-09T18:22:59.682Z,3.70
2024-05-09T18:26:10.816Z,3.97
2024-05-09T18:29:19.972Z,3.43
2024-05-09T18:32:23.868Z,4.10
2024-05-09T18:35:28.791Z,6.27
2024-05-09T18:38:30.986Z,3.70
2024-05-09T18:41:38.426Z,4.17
2024-05-09T18:44:40.684Z,5.13
2024-05-09T18:47:45.760Z,4.47
2024-05-09T18:50:51.478Z,3.60
2024-05-09T18:53:55.174Z,3.97
2024-05-09T18:57:03.771Z,4.00
2024-05-09T19:00:16.038Z,4.23
2024-05-09T19:03:25.022Z,5.17
2024-05-09T19:06:30.077Z,4.30
2024-05-09T19:09:32.288Z,4.83
2024-05-09T19:12:39.959Z,4.57
2024-05-09T19:15:44.633Z,4.30
2024-05-09T19:18:51.458Z,4.30
2024-05-09T19:21:54.135Z,4.87
2024-05-09T19:24:59.073Z,4.63
2024-05-09T19:28:06.843Z,4.57
2024-05-09T19:31:11.823Z,6.30
2024-05-09T19:34:16.672Z,4.57
2024-05-09T19:37:19.067Z,4.50
2024-05-09T19:40:29.190Z,4.47
2024-05-09T19:43:39.961Z,4.13
2024-05-09T19:46:42.257Z,3.87
2024-05-09T19:49:47.408Z,7.07
2024-05-09T19:52:49.523Z,4.47
2024-05-09T19:55:55.669Z,4.30
2024-05-09T19:59:03.409Z,4.63
2024-05-09T20:02:05.938Z,4.53
2024-05-09T20:05:10.925Z,4.60
2024-05-09T20:08:13.341Z,5.40
2024-05-09T20:11:18.488Z,5.07
2024-05-09T20:14:26.065Z,5.27
2024-05-09T20:17:28.395Z,4.67
2024-05-09T20:20:38.431Z,4.90
2024-05-09T20:23:46.820Z,5.23
2024-05-09T20:26:49.114Z,5.17
2024-05-09T20:29:56.736Z,5.20
2024-05-09T20:33:02.828Z,5.40
2024-05-09T20:36:06.497Z,4.60
2024-05-09T20:39:11.400Z,5.70
2024-05-09T20:42:13.680Z,5.43
2024-05-09T20:45:21.447Z,4.97
2024-05-09T20:48:24.882Z,4.97
2024-05-09T20:51:30.681Z,5.87
2024-05-09T20:54:32.929Z,5.40
2024-05-09T20:57:38.059Z,5.20
2024-05-09T21:00:45.578Z,5.00
2024-05-09T21:03:51.419Z,5.00
2024-05-09T21:06:53.717Z,4.73
2024-05-09T21:09:58.625Z,5.73
2024-05-09T21:13:01.382Z,6.17
2024-05-09T21:16:10.976Z,6.07
2024-05-09T21:19:13.693Z,7.17
2024-05-09T21:22:19.212Z,6.80
2024-05-09T21:25:21.803Z,5.87
2024-05-09T21:28:27.063Z,5.40
2024-05-09T21:31:32.233Z,5.47
2024-05-09T21:34:37.240Z,5.93
2024-05-09T21:37:39.547Z,5.53
2024-05-09T21:40:45.334Z,5.83
2024-05-09T21:43:47.970Z,6.03
2024-05-09T21:46:55.441Z,6.13
2024-05-09T21:50:00.458Z,5.80
2024-05-09T21:53:05.376Z,6.50
2024-05-09T21:56:08.646Z,5.83
2024-05-09T21:59:13.482Z,5.90
2024-05-09T22:02:19.121Z,5.40
2024-05-09T22:05:24.335Z,6.20
2024-05-09T22:08:27.033Z,5.87
2024-05-09T22:11:32.035Z,5.67
2024-05-09T22:14:36.932Z,6.07
2024-05-09T22:17:42.613Z,5.73
2024-05-09T22:20:47.586Z,7.00
2024-05-09T22:23:49.844Z,5.93
2024-05-09T22:26:55.295Z,5.67
2024-05-09T22:29:57.511Z,5.63
2024-05-09T22:33:05.257Z,6.57
2024-05-09T22:36:11.299Z,6.07
2024-05-09T22:39:13.579Z,6.03
2024-05-09T22:42:18.610Z,5.90
2024-05-09T22:45:24.472Z,6.20
2024-05-09T22:48:29.745Z,6.20
2024-05-09T22:51:35.252Z,6.70
2024-05-09T22:54:37.603Z,7.17
2024-05-09T22:57:42.474Z,6.70
2024-05-09T23:00:44.883Z,7.67
2024-05-09T23:03:52.994Z,7.50
2024-05-09T23:06:57.870Z,10.53
2024-05-09T23:10:00.583Z,14.07
2024-05-09T23:13:05.954Z,12.07
2024-05-09T23:16:11.210Z,12.97
2024-05-09T23:19:16.117Z,12.40
2024-05-09T23:22:23.605Z,11.93
2024-05-09T23:25:25.894Z,11.30
2024-05-09T23:28:31.724Z,12.60
2024-05-09T23:31:34.071Z,11.50
2024-05-09T23:34:41.796Z,11.67
2024-05-09T23:37:43.966Z,12.13
2024-05-09T23:40:48.899Z,11.77
2024-05-09T23:43:51.303Z,11.00
2024-05-09T23:46:56.220Z,10.23
2024-05-09T23:50:01.230Z,9.77
2024-05-09T23:53:07.950Z,10.50
2024-05-09T23:56:14.860Z,9.80
2024-05-09T23:59:19.752Z,9.87
